Time;durP1;ratioP1;P1;durP2;ratioP2;P2;SDS_P1;SDS_P2;PMS_P1;PMS_P2;Temp;Humidity;BMP_temperature;BMP_pressure;BME280_temperature;BME280_humidity;BME280_pressure;Samples;Min_cycle;Max_cycle;Signal;HPM_P1;HPM_P2
2024/03/13 00:00:39;;;;;;;6.60;5.10;;;10.10;99.90;;;;;;5054804;28;20529;-58
2024/03/13 00:03:08;;;;;;;7.33;5.67;;;10.10;99.90;;;;;;5054676;28;20442;-58
2024/03/13 00:05:35;;;;;;;6.23;5.37;;;10.10;99.90;;;;;;5054550;28;20437;-58
2024/03/13 00:08:02;;;;;;;5.70;4.93;;;10.10;99.90;;;;;;5054608;28;20446;-57
2024/03/13 00:10:29;;;;;;;6.20;5.60;;;10.00;99.90;;;;;;5054488;28;20445;-57
2024/03/13 00:12:55;;;;;;;5.97;5.27;;;10.00;99.90;;;;;;5054339;28;20492;-58
2024/03/13 00:15:22;;;;;;;6.50;5.00;;;10.00;99.90;;;;;;5054358;28;20449;-58
2024/03/13 00:17:49;;;;;;;5.00;4.50;;;10.10;99.90;;;;;;5054147;28;20470;-58
2024/03/13 00:20:17;;;;;;;5.47;4.30;;;10.00;99.90;;;;;;5054379;28;20460;-58
2024/03/13 00:22:46;;;;;;;6.57;4.73;;;10.10;99.90;;;;;;5054259;28;20460;-58
2024/03/13 00:25:14;;;;;;;5.03;3.90;;;10.10;99.90;;;;;;5054217;28;20499;-58
2024/03/13 00:27:41;;;;;;;4.70;4.00;;;10.10;99.90;;;;;;5053551;28;20507;-58
2024/03/13 00:30:09;;;;;;;4.83;4.33;;;10.10;99.90;;;;;;5054108;28;20457;-58
2024/03/13 00:32:36;;;;;;;4.70;4.20;;;10.10;99.90;;;;;;5053936;28;20481;-58
2024/03/13 00:35:03;;;;;;;4.67;4.27;;;10.10;99.90;;;;;;5053587;28;20450;-58
2024/03/13 00:37:32;;;;;;;5.73;4.30;;;10.10;99.90;;;;;;5053772;28;20813;-58
2024/03/13 00:39:58;;;;;;;4.50;3.80;;;10.20;99.90;;;;;;5053932;28;20445;-58
2024/03/13 00:42:25;;;;;;;6.17;4.87;;;10.20;99.90;;;;;;5053910;28;20444;-57
2024/03/13 00:44:53;;;;;;;5.00;3.97;;;10.20;99.90;;;;;;5053572;28;20452;-58
2024/03/13 00:47:22;;;;;;;4.17;3.60;;;10.20;99.90;;;;;;5053713;28;20458;-57
2024/03/13 00:49:52;;;;;;;3.90;3.50;;;10.30;99.90;;;;;;5053478;28;20955;-57
2024/03/13 00:52:19;;;;;;;4.17;3.67;;;10.30;99.90;;;;;;5053280;28;20479;-57
2024/03/13 00:54:47;;;;;;;4.57;4.17;;;10.30;99.90;;;;;;5052766;28;20816;-57
2024/03/13 00:57:15;;;;;;;4.20;3.80;;;10.30;99.90;;;;;;5052811;28;20488;-57
2024/03/13 00:59:42;;;;;;;5.17;4.67;;;10.30;99.90;;;;;;5053478;28;20442;-55
2024/03/13 01:02:09;;;;;;;3.93;3.53;;;10.40;99.90;;;;;;5053553;28;20881;-57
2024/03/13 01:04:35;;;;;;;5.50;2.90;;;10.40;99.90;;;;;;5053132;28;20441;-56
2024/03/13 01:07:02;;;;;;;3.83;3.53;;;10.40;99.90;;;;;;5053370;28;20461;-56
2024/03/13 01:09:30;;;;;;;3.87;3.47;;;10.40;99.90;;;;;;5053443;28;20495;-56
2024/03/13 01:11:58;;;;;;;3.40;3.10;;;10.40;99.90;;;;;;5053283;28;20446;-56
2024/03/13 01:14:25;;;;;;;4.13;3.77;;;10.40;99.90;;;;;;5053110;28;20931;-56
2024/03/13 01:16:55;;;;;;;3.63;3.30;;;10.40;99.90;;;;;;5053192;28;20469;-56
2024/03/13 01:19:23;;;;;;;4.03;3.73;;;10.40;99.90;;;;;;5053220;28;20450;-56
2024/03/13 01:21:54;;;;;;;3.90;3.60;;;10.40;99.90;;;;;;5053362;28;20456;-56
2024/03/13 01:24:21;;;;;;;3.90;3.40;;;10.40;99.90;;;;;;5053267;28;20426;-56
2024/03/13 01:26:49;;;;;;;3.73;3.30;;;10.40;99.90;;;;;;5052865;28;21031;-56
2024/03/13 01:29:18;;;;;;;3.73;3.43;;;10.40;99.90;;;;;;5052933;28;20947;-56
2024/03/13 01:31:44;;;;;;;3.33;3.03;;;10.40;99.90;;;;;;5053255;28;20850;-56
2024/03/13 01:34:11;;;;;;;3.50;3.20;;;10.50;99.90;;;;;;5052625;28;20497;-56
2024/03/13 01:39:24;;;;;;;4.27;3.27;;;10.50;99.90;;;;;;5054735;28;20401;-56
2024/03/13 01:55:40;;;;;;;3.83;3.53;;;10.40;99.90;;;;;;5057172;28;20907;-57
2024/03/13 01:58:10;;;;;;;4.77;4.37;;;10.40;99.90;;;;;;5057263;28;20448;-56
2024/03/13 02:03:24;;;;;;;5.67;4.03;;;10.40;99.90;;;;;;5056697;28;20409;-56
2024/03/13 02:05:52;;;;;;;4.97;4.07;;;10.50;99.90;;;;;;5056684;28;20449;-56
2024/03/13 02:08:19;;;;;;;5.27;4.77;;;10.50;99.90;;;;;;5056815;28;20447;-56
2024/03/13 02:10:48;;;;;;;4.60;4.17;;;10.50;99.90;;;;;;5056797;28;20441;-56
2024/03/13 02:13:17;;;;;;;4.97;4.47;;;10.50;99.90;;;;;;5056614;28;20485;-56
2024/03/13 02:15:45;;;;;;;5.03;4.63;;;10.50;99.90;;;;;;5056568;28;20441;-57
2024/03/13 02:18:19;;;;;;;6.83;4.87;;;10.50;99.90;;;;;;5056721;28;20608;-57
2024/03/13 02:20:47;;;;;;;5.00;4.50;;;10.50;99.90;;;;;;5056737;28;20455;-56
2024/03/13 02:23:21;;;;;;;5.50;5.00;;;10.60;99.90;;;;;;5056662;28;20442;-56
2024/03/13 02:25:48;;;;;;;4.50;4.10;;;10.60;99.90;;;;;;5039055;28;20920;-57
2024/03/13 02:28:15;;;;;;;4.27;3.87;;;10.60;99.90;;;;;;5038747;28;20453;-56
2024/03/13 02:30:43;;;;;;;4.50;3.87;;;10.60;99.90;;;;;;5038728;28;20449;-56
2024/03/13 02:33:11;;;;;;;4.40;4.00;;;10.70;99.90;;;;;;5038663;28;20509;-56
2024/03/13 02:35:38;;;;;;;6.70;4.27;;;10.70;99.90;;;;;;5038853;28;20472;-57
2024/03/13 02:38:07;;;;;;;4.53;4.13;;;10.70;99.90;;;;;;5038413;28;20962;-56
2024/03/13 02:40:34;;;;;;;4.37;3.70;;;10.80;99.90;;;;;;5038789;28;20491;-56
2024/03/13 02:43:01;;;;;;;4.00;3.70;;;10.80;99.90;;;;;;5039050;28;20441;-56
2024/03/13 02:45:28;;;;;;;6.00;4.50;;;10.80;99.90;;;;;;5038124;28;20453;-56
2024/03/13 02:47:55;;;;;;;6.13;4.60;;;10.80;99.90;;;;;;5038421;28;20461;-56
2024/03/13 02:50:22;;;;;;;4.80;4.10;;;10.80;99.90;;;;;;5038142;28;20524;-56
2024/03/13 02:52:49;;;;;;;4.13;3.73;;;10.80;99.90;;;;;;5038318;28;20480;-56
2024/03/13 02:55:16;;;;;;;5.30;4.30;;;10.90;99.90;;;;;;5038250;28;20810;-56
2024/03/13 02:57:44;;;;;;;4.17;3.87;;;10.90;99.90;;;;;;5037840;28;20477;-56
2024/03/13 03:00:12;;;;;;;5.43;4.90;;;10.90;99.90;;;;;;5038416;28;20442;-56
2024/03/13 03:02:40;;;;;;;5.33;4.53;;;10.90;99.90;;;;;;5037933;28;20434;-57
2024/03/13 03:05:07;;;;;;;4.53;4.13;;;10.90;99.90;;;;;;5037990;28;21010;-56
2024/03/13 03:07:34;;;;;;;5.13;4.57;;;10.90;99.90;;;;;;5037728;28;20470;-57
2024/03/13 03:10:01;;;;;;;3.90;3.57;;;10.90;99.90;;;;;;5038040;28;20450;-56
2024/03/13 03:12:28;;;;;;;4.43;4.07;;;10.90;99.90;;;;;;5037947;28;20452;-56
2024/03/13 03:14:55;;;;;;;4.30;3.90;;;10.90;99.90;;;;;;5037889;28;20433;-56
2024/03/13 03:17:22;;;;;;;4.00;3.60;;;10.90;99.90;;;;;;5037879;28;20465;-56
2024/03/13 03:19:50;;;;;;;4.10;3.80;;;10.80;99.90;;;;;;5037897;28;20437;-56
2024/03/13 03:22:18;;;;;;;4.50;4.10;;;10.80;99.90;;;;;;5038835;28;20509;-56
2024/03/13 03:24:45;;;;;;;4.27;3.97;;;10.80;99.90;;;;;;5037583;28;20940;-56
2024/03/13 03:27:12;;;;;;;4.37;3.97;;;10.80;99.90;;;;;;5037632;28;20461;-56
2024/03/13 03:29:40;;;;;;;4.67;4.27;;;10.90;99.90;;;;;;5037612;28;20473;-56
2024/03/13 03:32:06;;;;;;;5.37;4.80;;;10.90;99.90;;;;;;5037436;28;20975;-56
2024/03/13 03:34:33;;;;;;;4.83;4.40;;;10.90;99.90;;;;;;5037159;28;20485;-58
2024/03/13 03:37:02;;;;;;;5.33;4.73;;;10.80;99.90;;;;;;5037189;28;20276;-57
2024/03/13 03:39:29;;;;;;;4.00;3.70;;;10.80;99.90;;;;;;5037480;28;20450;-56
2024/03/13 03:41:57;;;;;;;4.23;3.83;;;10.80;99.90;;;;;;5037289;28;20441;-56
2024/03/13 03:44:24;;;;;;;4.27;3.87;;;10.90;99.90;;;;;;5037555;28;20461;-56
2024/03/13 03:46:51;;;;;;;3.93;3.53;;;10.80;99.90;;;;;;5037180;28;20470;-56
2024/03/13 03:49:18;;;;;;;5.23;4.37;;;10.90;99.90;;;;;;5037235;28;20434;-56
2024/03/13 03:51:44;;;;;;;4.73;4.33;;;10.80;99.90;;;;;;5037192;28;20796;-56
2024/03/13 03:54:11;;;;;;;5.23;3.70;;;10.90;99.90;;;;;;5037138;28;20486;-56
2024/03/13 03:56:39;;;;;;;4.30;3.90;;;10.90;99.90;;;;;;5036595;28;20473;-56
2024/03/13 03:59:07;;;;;;;4.20;3.80;;;10.90;99.90;;;;;;5036941;28;20959;-56
2024/03/13 04:01:35;;;;;;;4.83;4.33;;;10.90;99.90;;;;;;5036613;28;20438;-57
2024/03/13 04:04:03;;;;;;;4.83;4.03;;;10.90;99.90;;;;;;5037139;28;20480;-56
2024/03/13 04:06:30;;;;;;;4.80;4.27;;;10.90;99.90;;;;;;5037193;28;20465;-56
2024/03/13 04:08:57;;;;;;;7.00;5.43;;;11.00;99.90;;;;;;5036739;28;20452;-56
2024/03/13 04:11:24;;;;;;;7.30;5.50;;;10.90;99.90;;;;;;5036885;28;20480;-56
2024/03/13 04:13:51;;;;;;;4.93;4.53;;;11.00;99.90;;;;;;5036888;28;20535;-56
2024/03/13 04:16:18;;;;;;;5.20;4.70;;;11.00;99.90;;;;;;5036724;28;20812;-57
2024/03/13 04:18:45;;;;;;;5.90;5.27;;;11.00;99.90;;;;;;5036816;28;20452;-56
2024/03/13 04:21:12;;;;;;;5.40;4.90;;;11.00;99.90;;;;;;5036441;28;20986;-56
2024/03/13 04:23:41;;;;;;;7.70;7.00;;;11.00;99.90;;;;;;5036493;28;20429;-56
2024/03/13 04:26:08;;;;;;;6.83;6.07;;;11.10;99.90;;;;;;5036552;28;20989;-57
2024/03/13 04:28:37;;;;;;;8.00;7.30;;;11.10;99.90;;;;;;5036565;28;20520;-56
2024/03/13 04:31:04;;;;;;;8.07;6.80;;;11.10;99.90;;;;;;5036801;28;20529;-56
2024/03/13 04:33:31;;;;;;;6.57;5.97;;;11.10;99.90;;;;;;5036451;28;20871;-56
2024/03/13 04:35:58;;;;;;;7.27;6.40;;;11.10;99.90;;;;;;5036431;28;20544;-56
2024/03/13 04:38:25;;;;;;;10.03;6.90;;;11.10;99.90;;;;;;5036679;28;20529;-56
2024/03/13 04:40:52;;;;;;;7.70;6.90;;;11.10;99.90;;;;;;5036602;28;20442;-56
2024/03/13 04:43:19;;;;;;;8.03;7.23;;;11.10;99.90;;;;;;5036176;28;20890;-56
2024/03/13 04:45:46;;;;;;;7.93;7.13;;;11.00;99.90;;;;;;5036654;28;20447;-56
2024/03/13 04:48:14;;;;;;;8.67;7.37;;;11.10;99.90;;;;;;5036423;28;20461;-56
2024/03/13 04:50:41;;;;;;;9.10;7.00;;;11.10;99.90;;;;;;5036629;28;20441;-56
2024/03/13 04:53:08;;;;;;;9.00;7.40;;;11.10;99.90;;;;;;5036281;28;20513;-56
2024/03/13 04:55:34;;;;;;;7.33;6.53;;;11.10;99.90;;;;;;5036259;28;20446;-57
2024/03/13 04:58:02;;;;;;;8.37;7.43;;;11.10;99.90;;;;;;5035794;28;20457;-56
2024/03/13 05:00:28;;;;;;;8.10;7.07;;;11.10;99.90;;;;;;5035670;28;20450;-56
2024/03/13 05:02:55;;;;;;;7.23;6.20;;;11.10;99.90;;;;;;5035978;28;20434;-56
2024/03/13 05:05:23;;;;;;;8.07;7.00;;;11.10;99.90;;;;;;5035815;28;20498;-56
2024/03/13 05:07:50;;;;;;;7.33;6.10;;;11.20;99.90;;;;;;5035818;28;20480;-56
2024/03/13 05:10:17;;;;;;;7.00;6.23;;;11.20;99.90;;;;;;5035489;28;20437;-56
2024/03/13 05:12:44;;;;;;;6.97;6.30;;;11.20;99.90;;;;;;5035718;28;20437;-56
2024/03/13 05:15:11;;;;;;;8.30;7.50;;;11.10;99.90;;;;;;5035200;28;20489;-56
2024/03/13 05:17:38;;;;;;;8.17;7.30;;;11.20;99.90;;;;;;5035445;28;20975;-56
2024/03/13 05:20:07;;;;;;;7.43;6.63;;;11.20;99.90;;;;;;5035765;28;20469;-56
2024/03/13 05:22:34;;;;;;;7.53;6.43;;;11.20;99.90;;;;;;5035797;28;20442;-57
2024/03/13 05:25:01;;;;;;;6.87;6.17;;;11.10;99.90;;;;;;5035978;28;20444;-57
2024/03/13 05:27:29;;;;;;;7.77;6.80;;;11.10;99.90;;;;;;5036282;28;20465;-57
2024/03/13 05:29:56;;;;;;;6.83;6.03;;;11.20;99.90;;;;;;5035708;28;20886;-56
2024/03/13 05:32:23;;;;;;;8.80;5.27;;;11.20;99.90;;;;;;5035558;28;20441;-56
2024/03/13 05:34:50;;;;;;;8.67;5.93;;;11.20;99.90;;;;;;5035627;28;20484;-56
2024/03/13 05:37:17;;;;;;;7.77;5.20;;;11.20;99.90;;;;;;5035226;28;20967;-56
2024/03/13 05:39:44;;;;;;;7.80;6.70;;;11.20;99.90;;;;;;5035538;28;20452;-56
2024/03/13 05:42:12;;;;;;;7.60;6.03;;;11.30;99.90;;;;;;5035831;28;20449;-56
2024/03/13 05:44:38;;;;;;;8.40;6.70;;;11.30;99.90;;;;;;5035745;28;20449;-56
2024/03/13 05:47:05;;;;;;;7.37;6.57;;;11.30;99.90;;;;;;5035053;28;20890;-57
2024/03/13 05:49:32;;;;;;;5.83;4.90;;;11.30;99.90;;;;;;5035298;28;20441;-56
2024/03/13 05:51:59;;;;;;;5.90;5.30;;;11.40;99.90;;;;;;5035213;28;20867;-56
2024/03/13 05:54:28;;;;;;;8.80;6.43;;;11.50;99.90;;;;;;5035300;28;20485;-57
2024/03/13 05:56:55;;;;;;;8.20;5.80;;;11.50;99.90;;;;;;5035351;28;20473;-56
2024/03/13 05:59:22;;;;;;;8.60;6.03;;;11.60;99.90;;;;;;5035771;28;20990;-56
2024/03/13 06:01:49;;;;;;;7.00;6.27;;;11.60;99.90;;;;;;5035318;28;20444;-56
2024/03/13 06:04:20;;;;;;;10.27;6.83;;;11.60;99.90;;;;;;5035364;28;20437;-56
2024/03/13 06:06:48;;;;;;;8.70;7.47;;;11.70;99.90;;;;;;5035519;28;20834;-57
2024/03/13 06:09:16;;;;;;;8.87;7.00;;;11.70;99.90;;;;;;5035115;28;20453;-56
2024/03/13 06:11:43;;;;;;;11.17;7.80;;;11.70;99.90;;;;;;5035397;28;20495;-56
2024/03/13 06:14:10;;;;;;;10.63;7.23;;;11.70;99.90;;;;;;5034962;28;20850;-56
2024/03/13 06:16:36;;;;;;;12.40;8.53;;;11.70;99.90;;;;;;5035208;28;20457;-56
2024/03/13 06:19:03;;;;;;;10.90;8.60;;;11.70;99.90;;;;;;5035217;28;20464;-56
2024/03/13 06:21:30;;;;;;;11.23;8.23;;;11.70;99.90;;;;;;5035160;28;20206;-56
2024/03/13 06:24:00;;;;;;;12.40;8.37;;;11.80;99.90;;;;;;5035154;28;20468;-56
2024/03/13 06:26:27;;;;;;;11.87;8.30;;;11.80;99.90;;;;;;5038626;28;20465;-56
2024/03/13 06:31:39;;;;;;;17.17;9.80;;;11.80;99.90;;;;;;5041395;28;20406;-56
2024/03/13 06:34:08;;;;;;;18.60;11.57;;;11.90;99.90;;;;;;5038862;28;20481;-56
2024/03/13 06:36:36;;;;;;;15.70;10.50;;;11.90;99.90;;;;;;5038947;28;20464;-56
2024/03/13 06:39:03;;;;;;;18.60;10.70;;;11.90;99.90;;;;;;5038945;28;20491;-56
2024/03/13 06:41:30;;;;;;;14.73;10.87;;;12.00;99.90;;;;;;5038692;28;20434;-56
2024/03/13 06:43:57;;;;;;;17.33;12.23;;;11.90;99.90;;;;;;5038743;28;20445;-56
2024/03/13 06:46:25;;;;;;;17.40;12.73;;;11.90;99.90;;;;;;5038514;28;20805;-56
2024/03/13 06:48:52;;;;;;;19.90;14.80;;;11.90;99.90;;;;;;5038331;28;20791;-56
2024/03/13 06:51:18;;;;;;;14.67;11.33;;;11.90;99.90;;;;;;5038091;28;20955;-56
2024/03/13 06:53:45;;;;;;;19.50;12.93;;;11.90;99.90;;;;;;5038352;28;20445;-56
2024/03/13 06:56:12;;;;;;;19.63;12.90;;;11.90;99.90;;;;;;5037985;28;20477;-56
2024/03/13 06:58:40;;;;;;;16.57;11.50;;;11.90;99.90;;;;;;5038549;28;20453;-56
2024/03/13 07:01:12;;;;;;;16.00;10.97;;;12.00;99.90;;;;;;5038468;28;20454;-56
2024/03/13 07:03:39;;;;;;;19.73;10.70;;;12.00;99.90;;;;;;5038592;28;20538;-56
2024/03/13 07:06:06;;;;;;;12.80;10.70;;;12.00;99.90;;;;;;5038354;28;20463;-56
2024/03/13 07:08:35;;;;;;;15.83;11.43;;;12.00;99.90;;;;;;5038112;28;20446;-56
2024/03/13 07:11:05;;;;;;;15.27;11.67;;;12.10;99.90;;;;;;5038284;28;20445;-56
2024/03/13 07:13:33;;;;;;;19.07;13.10;;;12.10;99.90;;;;;;5038430;28;20456;-56
2024/03/13 07:16:00;;;;;;;17.40;12.80;;;12.10;99.90;;;;;;5037711;28;20516;-56
2024/03/13 07:18:27;;;;;;;16.13;12.97;;;12.10;99.90;;;;;;5037927;28;20452;-56
2024/03/13 07:20:54;;;;;;;13.27;11.63;;;12.10;99.90;;;;;;5037966;28;20445;-56
2024/03/13 07:23:21;;;;;;;18.70;13.17;;;12.10;99.90;;;;;;5037823;28;20443;-56
2024/03/13 07:25:49;;;;;;;19.90;13.53;;;12.10;99.90;;;;;;5037690;28;20438;-56
2024/03/13 07:28:18;;;;;;;16.63;12.43;;;12.10;99.90;;;;;;5037533;28;20967;-56
2024/03/13 07:30:45;;;;;;;17.80;11.37;;;12.20;99.90;;;;;;5037860;28;20461;-56
2024/03/13 07:33:12;;;;;;;16.40;11.67;;;12.20;99.90;;;;;;5037772;28;20438;-56
2024/03/13 07:35:40;;;;;;;21.50;12.43;;;12.20;99.90;;;;;;5037314;28;20572;-57
2024/03/13 07:38:09;;;;;;;16.07;12.37;;;12.20;99.90;;;;;;5036771;28;20446;-56
2024/03/13 07:40:37;;;;;;;18.40;11.80;;;12.20;99.90;;;;;;5037776;28;20446;-56
2024/03/13 07:43:05;;;;;;;16.43;9.47;;;12.20;99.90;;;;;;5037701;28;20446;-56
2024/03/13 07:45:32;;;;;;;14.60;9.70;;;12.30;99.90;;;;;;5037561;28;20446;-56
2024/03/13 07:47:59;;;;;;;14.13;9.83;;;12.30;99.90;;;;;;5036923;28;20980;-56
2024/03/13 07:50:26;;;;;;;14.13;9.50;;;12.30;99.90;;;;;;5037273;28;20468;-56
2024/03/13 07:52:53;;;;;;;14.20;9.67;;;12.30;99.90;;;;;;5037256;28;20445;-56
2024/03/13 07:55:21;;;;;;;12.23;9.00;;;12.30;99.90;;;;;;5037106;28;20576;-56
2024/03/13 07:57:48;;;;;;;12.43;9.50;;;12.30;99.90;;;;;;5036879;28;20852;-56
2024/03/13 08:00:17;;;;;;;11.00;9.37;;;12.30;99.90;;;;;;5037120;28;20820;-56
2024/03/13 08:02:44;;;;;;;9.60;8.27;;;12.30;99.90;;;;;;5037305;28;20446;-56
2024/03/13 08:05:11;;;;;;;12.10;8.17;;;12.30;99.90;;;;;;5036982;28;20436;-56
2024/03/13 08:07:38;;;;;;;14.77;8.83;;;12.30;99.90;;;;;;5036885;28;20458;-56
2024/03/13 08:10:08;;;;;;;13.77;9.00;;;12.20;99.90;;;;;;5036621;28;20932;-56
2024/03/13 08:12:35;;;;;;;11.20;9.17;;;12.20;99.90;;;;;;5037447;28;20437;-56
2024/03/13 08:15:02;;;;;;;15.77;11.43;;;12.20;99.90;;;;;;5036822;28;20572;-56
2024/03/13 08:17:29;;;;;;;13.30;10.10;;;12.20;99.90;;;;;;5036769;28;20799;-56
2024/03/13 08:19:56;;;;;;;15.73;10.90;;;12.20;99.90;;;;;;5036668;28;20525;-56
2024/03/13 08:22:23;;;;;;;16.47;11.37;;;12.30;99.90;;;;;;5036765;28;20457;-56
2024/03/13 08:24:51;;;;;;;17.87;11.17;;;12.30;99.90;;;;;;5036253;28;20445;-56
2024/03/13 08:27:18;;;;;;;23.60;10.67;;;12.30;99.90;;;;;;5036607;28;20468;-56
2024/03/13 08:29:45;;;;;;;16.77;10.23;;;12.40;99.90;;;;;;5036435;28;20441;-56
2024/03/13 08:32:11;;;;;;;14.43;10.90;;;12.40;99.90;;;;;;5036508;28;20524;-56
2024/03/13 08:34:39;;;;;;;13.93;11.10;;;12.40;99.90;;;;;;5036650;28;20477;-56
2024/03/13 08:37:06;;;;;;;15.43;10.37;;;12.50;99.90;;;;;;5036454;28;20464;-56
2024/03/13 08:39:34;;;;;;;15.00;10.13;;;12.50;99.90;;;;;;5037091;28;20932;-56
2024/03/13 08:42:01;;;;;;;17.17;9.93;;;12.60;99.90;;;;;;5036507;28;20528;-56
2024/03/13 08:44:29;;;;;;;15.90;10.40;;;12.70;99.90;;;;;;5036377;28;20441;-56
2024/03/13 08:46:57;;;;;;;14.73;10.40;;;12.70;99.90;;;;;;5036004;28;20975;-56
2024/03/13 08:49:24;;;;;;;12.13;8.90;;;12.80;99.90;;;;;;5036062;28;20447;-56
2024/03/13 08:51:51;;;;;;;15.17;8.90;;;13.00;99.90;;;;;;5036294;28;20532;-56
2024/03/13 08:54:18;;;;;;;12.67;8.50;;;13.00;99.90;;;;;;5036078;28;20446;-56
2024/03/13 08:56:45;;;;;;;12.10;7.87;;;13.10;99.90;;;;;;5035802;28;20480;-56
2024/03/13 08:59:12;;;;;;;10.17;7.70;;;13.10;99.90;;;;;;5036686;28;20450;-56
2024/03/13 09:01:41;;;;;;;11.03;7.80;;;13.20;99.90;;;;;;5035748;28;20966;-56
2024/03/13 09:04:09;;;;;;;12.17;7.20;;;13.20;99.90;;;;;;5036139;28;20449;-56
2024/03/13 09:06:38;;;;;;;7.93;6.40;;;13.20;99.90;;;;;;5036092;28;20515;-56
2024/03/13 09:09:04;;;;;;;12.07;6.90;;;13.20;99.90;;;;;;5035803;28;20943;-55
2024/03/13 09:11:31;;;;;;;8.13;6.30;;;13.20;99.90;;;;;;5035810;28;20437;-55
2024/03/13 09:14:01;;;;;;;9.87;7.33;;;13.20;99.90;;;;;;5035905;28;20445;-55
2024/03/13 09:16:28;;;;;;;7.97;5.77;;;13.20;99.90;;;;;;5035757;28;20542;-55
2024/03/13 09:18:56;;;;;;;7.30;6.33;;;13.20;99.90;;;;;;5035898;28;20500;-55
2024/03/13 09:21:23;;;;;;;8.13;5.97;;;13.20;99.90;;;;;;5035597;28;20540;-55
2024/03/13 09:23:52;;;;;;;10.77;6.83;;;13.20;99.90;;;;;;5035669;28;20448;-55
2024/03/13 09:26:19;;;;;;;8.33;5.90;;;13.20;99.90;;;;;;5035492;28;20902;-56
2024/03/13 09:28:46;;;;;;;6.90;4.90;;;13.20;99.90;;;;;;5035589;28;20453;-54
2024/03/13 09:31:14;;;;;;;9.20;6.30;;;13.20;99.90;;;;;;5035584;28;20456;-55
2024/03/13 09:33:40;;;;;;;8.63;6.57;;;13.20;99.90;;;;;;5035599;28;20794;-55
2024/03/13 09:36:09;;;;;;;8.03;5.60;;;13.10;99.90;;;;;;5035845;28;20489;-55
2024/03/13 09:38:35;;;;;;;9.30;6.00;;;13.10;99.90;;;;;;5035661;28;20444;-55
2024/03/13 09:41:06;;;;;;;9.30;4.97;;;13.20;99.90;;;;;;5035449;28;20442;-55
2024/03/13 09:43:33;;;;;;;7.17;5.40;;;13.20;99.90;;;;;;5035538;28;20438;-55
2024/03/13 09:46:01;;;;;;;7.40;4.87;;;13.20;99.90;;;;;;5035614;28;20438;-56
2024/03/13 09:48:28;;;;;;;6.23;5.20;;;13.20;99.90;;;;;;5035635;28;20445;-55
2024/03/13 09:50:55;;;;;;;7.17;5.80;;;13.10;99.90;;;;;;5035981;28;20452;-55
2024/03/13 09:53:22;;;;;;;5.43;4.93;;;13.20;99.90;;;;;;5035528;28;20451;-55
2024/03/13 09:55:50;;;;;;;7.33;5.57;;;13.30;99.90;;;;;;5035005;28;20492;-55
2024/03/13 09:58:17;;;;;;;6.07;4.30;;;13.30;99.90;;;;;;5035410;28;20434;-55
2024/03/13 10:00:44;;;;;;;8.10;5.63;;;13.30;99.90;;;;;;5037613;28;20445;-55
2024/03/13 10:03:17;;;;;;;8.60;5.07;;;13.30;99.90;;;;;;5039749;28;20806;-55
2024/03/13 10:05:44;;;;;;;6.67;4.83;;;13.40;99.90;;;;;;5039667;28;20430;-55
2024/03/13 10:08:11;;;;;;;6.30;4.87;;;13.50;99.90;;;;;;5039397;28;20438;-55
2024/03/13 10:10:38;;;;;;;7.50;4.90;;;13.60;99.90;;;;;;5039232;28;20885;-55
2024/03/13 10:13:06;;;;;;;5.17;4.67;;;13.60;99.90;;;;;;5039354;28;20468;-55
2024/03/13 10:15:33;;;;;;;5.70;4.60;;;13.60;99.90;;;;;;5039245;28;20577;-55
2024/03/13 10:18:00;;;;;;;4.47;4.03;;;13.70;99.90;;;;;;5039296;28;20892;-55
2024/03/13 10:20:28;;;;;;;5.10;4.40;;;13.70;99.90;;;;;;5039087;28;20820;-55
2024/03/13 10:22:55;;;;;;;5.97;5.13;;;13.70;99.90;;;;;;5039196;28;20445;-55
2024/03/13 10:25:22;;;;;;;8.27;4.90;;;13.80;99.90;;;;;;5038608;28;20936;-55
2024/03/13 10:27:49;;;;;;;5.20;4.10;;;13.90;99.90;;;;;;5038859;28;20469;-55
2024/03/13 10:30:16;;;;;;;4.00;3.60;;;13.90;99.90;;;;;;5038668;28;20449;-55
2024/03/13 10:32:43;;;;;;;4.17;3.70;;;14.00;99.90;;;;;;5038405;28;20636;-55
2024/03/13 10:35:11;;;;;;;5.60;3.80;;;14.10;99.90;;;;;;5038686;28;20481;-55
2024/03/13 10:37:38;;;;;;;3.83;3.53;;;14.30;99.90;;;;;;5038463;28;20519;-55
2024/03/13 10:40:06;;;;;;;5.30;3.20;;;14.40;99.90;;;;;;5038699;28;20468;-55
2024/03/13 10:42:33;;;;;;;4.03;3.73;;;14.40;99.90;;;;;;5038506;28;20437;-55
2024/03/13 10:45:00;;;;;;;3.73;3.43;;;14.40;99.90;;;;;;5038665;28;20495;-55
2024/03/13 10:47:27;;;;;;;3.80;2.97;;;14.40;99.90;;;;;;5038480;28;20467;-55
2024/03/13 10:49:55;;;;;;;4.60;3.10;;;14.40;99.90;;;;;;5038489;28;20449;-55
2024/03/13 10:52:22;;;;;;;5.00;3.50;;;14.30;99.90;;;;;;5038088;28;20468;-55
2024/03/13 10:54:49;;;;;;;5.33;2.70;;;14.40;99.90;;;;;;5038379;28;20818;-55
2024/03/13 10:57:17;;;;;;;3.80;3.17;;;14.40;99.90;;;;;;5037998;28;20469;-55
2024/03/13 10:59:44;;;;;;;3.63;2.60;;;14.30;99.90;;;;;;5038520;28;20822;-55
2024/03/13 11:02:11;;;;;;;3.70;3.00;;;14.30;99.90;;;;;;5038267;28;20444;-55
2024/03/13 11:04:38;;;;;;;5.10;2.83;;;14.30;99.90;;;;;;5037946;28;20450;-55
2024/03/13 11:07:06;;;;;;;4.10;3.60;;;14.20;99.90;;;;;;5037993;28;20489;-55
2024/03/13 11:09:33;;;;;;;5.73;3.00;;;14.10;99.90;;;;;;5038139;28;20456;-55
2024/03/13 11:12:00;;;;;;;7.00;3.20;;;14.10;99.90;;;;;;5036592;28;20453;-55
2024/03/13 11:14:27;;;;;;;3.47;3.17;;;14.10;99.90;;;;;;5037704;28;20448;-55
2024/03/13 11:16:55;;;;;;;5.77;3.47;;;14.00;99.90;;;;;;5037860;28;20493;-55
2024/03/13 11:19:22;;;;;;;3.50;3.20;;;14.00;99.90;;;;;;5037806;28;20438;-55
2024/03/13 11:21:50;;;;;;;4.57;3.53;;;14.00;99.90;;;;;;5037960;28;20468;-55
2024/03/13 11:24:18;;;;;;;3.93;3.13;;;14.00;99.90;;;;;;5037641;28;20967;-55
2024/03/13 11:26:46;;;;;;;6.77;4.23;;;14.00;99.90;;;;;;5038000;28;20494;-56
2024/03/13 11:29:13;;;;;;;5.37;3.67;;;14.00;99.90;;;;;;5038464;28;20445;-56
2024/03/13 11:31:40;;;;;;;5.17;4.40;;;13.90;99.90;;;;;;5038318;28;20524;-56
2024/03/13 11:34:07;;;;;;;5.67;4.63;;;13.90;99.90;;;;;;5038242;28;20528;-56
2024/03/13 11:36:34;;;;;;;5.17;3.90;;;13.90;99.90;;;;;;5037905;28;20490;-56
2024/03/13 11:39:00;;;;;;;4.57;4.17;;;13.90;99.90;;;;;;5037523;28;20891;-56
2024/03/13 11:41:27;;;;;;;6.03;4.50;;;13.90;99.90;;;;;;5037676;28;20441;-56
2024/03/13 11:43:56;;;;;;;5.73;4.40;;;13.90;99.90;;;;;;5037474;28;20445;-56
2024/03/13 11:46:33;;;;;;;6.40;3.77;;;13.90;99.90;;;;;;5037511;28;20473;-56
2024/03/13 11:49:01;;;;;;;5.40;4.43;;;13.90;99.90;;;;;;5038844;28;20425;-56
2024/03/13 11:51:30;;;;;;;4.77;4.27;;;13.90;99.90;;;;;;5037049;28;20441;-56
2024/03/13 11:54:00;;;;;;;6.47;5.77;;;13.90;99.90;;;;;;5037534;28;20448;-56
2024/03/13 11:56:29;;;;;;;4.97;4.47;;;13.80;99.90;;;;;;5037735;28;20485;-57
2024/03/13 11:58:57;;;;;;;5.57;4.50;;;13.90;99.90;;;;;;5038107;28;20442;-57
2024/03/13 12:01:23;;;;;;;7.17;4.70;;;14.00;99.90;;;;;;5038068;28;20441;-57
2024/03/13 12:03:50;;;;;;;5.80;4.10;;;14.10;99.90;;;;;;5037290;28;20821;-57
2024/03/13 12:06:46;;;;;;;4.97;4.47;;;14.20;99.90;;;;;;5036901;28;20457;-57
2024/03/13 12:09:15;;;;;;;5.93;3.90;;;14.20;99.90;;;;;;5008304;28;20540;-57
2024/03/13 12:11:42;;;;;;;4.30;3.90;;;14.20;99.90;;;;;;5037337;28;20541;-57
2024/03/13 12:14:09;;;;;;;5.77;4.13;;;14.10;99.90;;;;;;5036933;28;20437;-56
2024/03/13 12:16:36;;;;;;;6.57;3.90;;;14.10;99.90;;;;;;5036401;28;20838;-56
2024/03/13 12:19:03;;;;;;;5.40;4.20;;;14.10;99.90;;;;;;5036925;28;20438;-56
2024/03/13 12:21:32;;;;;;;7.47;4.47;;;14.10;99.90;;;;;;5036761;28;20446;-57
2024/03/13 12:23:59;;;;;;;5.03;4.30;;;14.10;99.90;;;;;;5036346;28;20959;-56
2024/03/13 12:26:26;;;;;;;9.20;5.30;;;14.00;99.90;;;;;;5036670;28;20457;-55
2024/03/13 12:28:55;;;;;;;6.30;5.47;;;14.00;99.90;;;;;;5036997;28;20536;-56
2024/03/13 12:31:22;;;;;;;5.73;4.50;;;14.10;99.90;;;;;;5036991;28;20851;-56
2024/03/13 12:33:49;;;;;;;7.27;5.00;;;14.20;99.90;;;;;;5037200;28;20437;-57
2024/03/13 12:36:16;;;;;;;5.00;4.60;;;14.20;99.90;;;;;;5036075;28;20881;-57
2024/03/13 12:38:44;;;;;;;6.27;5.00;;;14.30;99.90;;;;;;5037115;28;20442;-57
2024/03/13 12:41:11;;;;;;;5.97;4.83;;;14.30;99.90;;;;;;5036524;28;20442;-57
2024/03/13 12:43:40;;;;;;;5.40;4.50;;;14.30;99.90;;;;;;5036444;28;20452;-57
2024/03/13 12:46:07;;;;;;;5.70;4.53;;;14.40;99.90;;;;;;5036931;28;20557;-57
2024/03/13 12:48:34;;;;;;;6.90;4.73;;;14.50;99.90;;;;;;5036446;28;20441;-57
2024/03/13 12:51:02;;;;;;;7.10;5.17;;;14.60;99.90;;;;;;5037055;28;20440;-57
2024/03/13 12:53:30;;;;;;;8.90;4.40;;;14.60;99.90;;;;;;5036314;28;20446;-56
2024/03/13 12:55:57;;;;;;;6.20;4.50;;;14.70;99.90;;;;;;5035882;28;20491;-56
2024/03/13 12:58:27;;;;;;;6.43;4.47;;;14.80;99.90;;;;;;5035957;28;20424;-56
2024/03/13 13:00:53;;;;;;;6.50;4.33;;;14.80;99.90;;;;;;5036372;28;20458;-57
2024/03/13 13:03:22;;;;;;;5.10;3.90;;;14.80;99.90;;;;;;5020197;28;20462;-57
2024/03/13 13:05:49;;;;;;;5.20;4.50;;;14.80;99.90;;;;;;5035779;28;20974;-57